createdAt,value
2023-07-04T00:01:24.411Z,99093.13
2023-07-04T00:03:56.186Z,99096.25
2023-07-04T00:06:26.837Z,99097.84
2023-07-04T00:08:53.483Z,99098.59
2023-07-04T00:11:20.704Z,99093.81
2023-07-04T00:13:50.931Z,99099.84
2023-07-04T00:16:17.843Z,99089.06
2023-07-04T00:18:45.571Z,99084.28
2023-07-04T00:21:13.996Z,99086.28
2023-07-04T00:23:43.627Z,99083.47
2023-07-04T00:26:10.227Z,99070.72
2023-07-04T00:28:40.044Z,99084.38
2023-07-04T00:31:08.637Z,99076.41
2023-07-04T00:33:35.684Z,99075.25
2023-07-04T00:36:08.559Z,99076.50
2023-07-04T00:38:36.650Z,99077.38
2023-07-04T00:41:09.193Z,99076.25
2023-07-04T00:43:46.617Z,99076.69
2023-07-04T00:46:16.922Z,99079.91
2023-07-04T00:48:46.995Z,99083.16
2023-07-04T00:51:23.217Z,99079.56
2023-07-04T00:53:54.680Z,99075.97
2023-07-04T00:56:27.126Z,99072.38
2023-07-04T00:59:00.609Z,99072.81
2023-07-04T01:01:28.399Z,99081.22
2023-07-04T01:03:58.287Z,99086.03
2023-07-04T01:06:32.071Z,99078.41
2023-07-04T01:09:03.011Z,99088.81
2023-07-04T01:11:34.464Z,99082.44
2023-07-04T01:14:04.486Z,99089.63
2023-07-04T01:16:32.737Z,99077.63
2023-07-04T01:18:59.729Z,99084.81
2023-07-04T01:21:28.519Z,99080.00
2023-07-04T01:24:00.197Z,99082.81
2023-07-04T01:26:35.932Z,99097.13
2023-07-04T01:29:06.160Z,99097.13
2023-07-04T01:31:33.203Z,99094.34
2023-07-04T01:33:59.993Z,99104.28
2023-07-04T01:36:31.430Z,99099.50
2023-07-04T01:38:58.172Z,99094.69
2023-07-04T01:41:27.630Z,99097.50
2023-07-04T01:43:59.597Z,99091.09
2023-07-04T01:46:26.403Z,99096.69
2023-07-04T01:48:53.414Z,99099.94
2023-07-04T01:51:38.256Z,99096.34
2023-07-04T01:54:06.747Z,99104.75
2023-07-04T01:56:34.936Z,99102.75
2023-07-04T01:59:02.593Z,99099.94
2023-07-04T02:01:29.508Z,99102.75
2023-07-04T02:03:56.165Z,99105.94
2023-07-04T02:06:22.907Z,99112.00
2023-07-04T02:08:49.492Z,99117.59
2023-07-04T02:11:16.049Z,99121.59
2023-07-04T02:13:42.705Z,99110.84
2023-07-04T02:16:09.376Z,99118.47
2023-07-04T02:18:36.183Z,99122.50
2023-07-04T02:21:02.849Z,99120.91
2023-07-04T02:23:29.377Z,99122.13
2023-07-04T02:25:56.215Z,99127.38
2023-07-04T02:28:23.016Z,99124.22
2023-07-04T02:30:57.377Z,99134.63
2023-07-04T02:33:24.980Z,99142.22
2023-07-04T02:35:51.963Z,99136.22
2023-07-04T02:38:19.431Z,99136.22
2023-07-04T02:40:47.841Z,99134.22
2023-07-04T02:43:15.257Z,99141.34
2023-07-04T02:45:42.259Z,99136.56
2023-07-04T02:48:08.880Z,99135.34
2023-07-04T02:50:35.443Z,99136.91
2023-07-04T02:53:02.522Z,99138.50
2023-07-04T02:55:29.261Z,99135.25
2023-07-04T02:57:56.122Z,99143.97
2023-07-04T03:00:23.793Z,99146.78
2023-07-04T03:02:50.842Z,99148.38
2023-07-04T03:05:17.537Z,99145.56
2023-07-04T03:07:44.103Z,99142.31
2023-07-04T03:10:10.914Z,99141.56
2023-07-04T03:12:37.560Z,99145.56
2023-07-04T03:15:04.741Z,99138.38
2023-07-04T03:17:31.334Z,99147.56
2023-07-04T03:19:57.914Z,99145.56
2023-07-04T03:22:24.484Z,99137.63
2023-07-04T03:24:51.057Z,99142.44
2023-07-04T03:27:17.594Z,99142.44
2023-07-04T03:29:44.147Z,99133.69
2023-07-04T03:32:10.706Z,99136.84
2023-07-04T03:34:37.273Z,99146.44
2023-07-04T03:37:04.113Z,99146.09
2023-07-04T03:39:30.765Z,99141.72
2023-07-04T03:41:57.280Z,99152.19
2023-07-04T03:44:23.812Z,99146.69
2023-07-04T03:46:50.397Z,99151.91
2023-07-04T03:49:16.973Z,99142.38
2023-07-04T03:51:45.192Z,99147.63
2023-07-04T03:54:13.869Z,99150.09
2023-07-04T03:56:40.402Z,99144.56
2023-07-04T03:59:06.971Z,99141.41
2023-07-04T04:01:33.507Z,99141.06
2023-07-04T04:04:00.234Z,99151.91
2023-07-04T04:06:26.908Z,99155.06
2023-07-04T04:08:53.667Z,99151.94
2023-07-04T04:11:20.304Z,99158.75
2023-07-04T04:13:47.133Z,99163.13
2023-07-04T04:16:13.725Z,99168.72
2023-07-04T04:18:40.480Z,99173.09
2023-07-04T04:21:08.785Z,99174.28
2023-07-04T04:23:35.376Z,99175.41
2023-07-04T04:26:02.390Z,99178.13
2023-07-04T04:28:29.049Z,99173.25
2023-07-04T04:30:56.025Z,99169.56
2023-07-04T04:33:22.868Z,99176.31
2023-07-04T04:35:49.423Z,99188.22
2023-07-04T04:38:16.961Z,99178.16
2023-07-04T04:40:44.191Z,99180.88
2023-07-04T04:43:11.166Z,99182.47
2023-07-04T04:45:39.782Z,99184.06
2023-07-04T04:48:07.510Z,99180.34
2023-07-04T04:50:34.247Z,99185.88
2023-07-04T04:53:01.349Z,99184.56
2023-07-04T04:55:28.491Z,99182.84
2023-07-04T04:57:55.238Z,99189.50
2023-07-04T05:00:22.105Z,99192.13
2023-07-04T05:02:48.835Z,99193.53
2023-07-04T05:05:16.846Z,99189.34
2023-07-04T05:07:43.424Z,99191.97
2023-07-04T05:10:10.319Z,99195.75
2023-07-04T05:12:36.882Z,99196.34
2023-07-04T05:15:06.343Z,99202.91
2023-07-04T05:17:33.429Z,99206.69
2023-07-04T05:20:01.685Z,99206.84
2023-07-04T05:22:28.441Z,99215.75
2023-07-04T05:24:56.453Z,99208.84
2023-07-04T05:27:23.008Z,99217.84
2023-07-04T05:29:49.689Z,99221.66
2023-07-04T05:32:16.363Z,99222.28
2023-07-04T05:34:47.379Z,99223.69
2023-07-04T05:37:13.946Z,99220.91
2023-07-04T05:39:40.504Z,99218.94
2023-07-04T05:42:07.268Z,99220.09
2023-07-04T05:44:33.924Z,99221.59
2023-07-04T05:47:00.659Z,99220.84
2023-07-04T05:49:27.184Z,99228.16
2023-07-04T05:51:54.201Z,99217.03
2023-07-04T05:54:20.858Z,99220.84
2023-07-04T05:56:52.697Z,99219.03
2023-07-04T05:59:19.241Z,99215.66
2023-07-04T06:01:47.139Z,99218.81
2023-07-04T06:04:15.128Z,99219.16
2023-07-04T06:06:44.532Z,99220.38
2023-07-04T06:09:14.205Z,99218.81
2023-07-04T06:11:46.637Z,99224.09
2023-07-04T06:14:18.530Z,99225.34
2023-07-04T06:16:45.318Z,99233.09
2023-07-04T06:19:11.928Z,99239.25
2023-07-04T06:21:43.905Z,99233.88
2023-07-04T06:24:12.334Z,99240.84
2023-07-04T06:26:38.948Z,99249.38
2023-07-04T06:29:05.548Z,99243.09
2023-07-04T06:31:32.337Z,99245.56
2023-07-04T06:33:59.057Z,99250.28
2023-07-04T06:36:25.896Z,99247.69
2023-07-04T06:38:53.211Z,99251.97
2023-07-04T06:41:20.527Z,99248.94
2023-07-04T06:43:48.350Z,99251.19
2023-07-04T06:46:18.439Z,99252.75
2023-07-04T06:48:48.285Z,99249.50
2023-07-04T06:51:16.640Z,99250.50
2023-07-04T06:53:43.804Z,99248.94
2023-07-04T06:56:28.433Z,99259.38
2023-07-04T06:58:56.156Z,99259.41
2023-07-04T07:01:28.430Z,99258.25
2023-07-04T07:03:56.518Z,99262.72
2023-07-04T07:06:23.546Z,99268.31
2023-07-04T07:08:50.186Z,99268.41
2023-07-04T07:11:18.867Z,99267.25
2023-07-04T07:13:47.870Z,99274.97
2023-07-04T07:16:26.129Z,99269.78
2023-07-04T07:18:54.512Z,99267.81
2023-07-04T07:21:26.795Z,99266.78
2023-07-04T07:23:57.800Z,99262.59
2023-07-04T07:26:27.235Z,99259.03
2023-07-04T07:28:55.418Z,99256.31
2023-07-04T07:33:54.385Z,99258.09
2023-07-04T07:36:31.927Z,99247.34
2023-07-04T07:39:00.211Z,99258.41
2023-07-04T07:41:29.643Z,99251.69
2023-07-04T07:43:56.280Z,99256.72
2023-07-04T07:46:23.238Z,99259.38
2023-07-04T07:48:50.625Z,99269.13
2023-07-04T07:51:18.104Z,99263.69
2023-07-04T07:53:46.943Z,99262.28
2023-07-04T07:56:15.361Z,99256.81
2023-07-04T07:58:41.978Z,99258.91
2023-07-04T08:01:23.792Z,99268.16
2023-07-04T08:03:51.081Z,99263.47
2023-07-04T08:06:44.691Z,99259.47
2023-07-04T08:09:12.525Z,99251.97
2023-07-04T08:11:40.672Z,99255.56
2023-07-04T08:14:07.930Z,99254.47
2023-07-04T08:16:49.393Z,99252.63
2023-07-04T08:19:18.440Z,99257.94
2023-07-04T08:21:46.493Z,99257.94
2023-07-04T08:24:15.039Z,99254.66
2023-07-04T08:26:45.783Z,99249.50
2023-07-04T08:29:13.320Z,99254.81
2023-07-04T08:31:39.967Z,99258.59
2023-07-04T08:34:06.679Z,99253.88
2023-07-04T08:36:34.175Z,99259.97
2023-07-04T08:39:00.800Z,99260.94
2023-07-04T08:41:49.381Z,99272.06
2023-07-04T08:44:22.003Z,99265.44
2023-07-04T08:46:55.305Z,99262.63
2023-07-04T08:49:47.549Z,99264.94
2023-07-04T08:52:25.907Z,99266.38
2023-07-04T08:54:54.447Z,99263.06
2023-07-04T08:57:44.082Z,99260.75
2023-07-04T09:00:16.085Z,99259.47
2023-07-04T09:03:06.475Z,99253.78
2023-07-04T09:05:49.568Z,99251.22
2023-07-04T09:08:22.077Z,99257.63
2023-07-04T09:10:52.564Z,99254.47
2023-07-04T09:13:45.226Z,99247.19
2023-07-04T09:16:19.073Z,99260.22
2023-07-04T09:18:59.997Z,99252.63
2023-07-04T09:21:27.416Z,99260.13
2023-07-04T09:23:56.794Z,99266.63
2023-07-04T09:26:26.578Z,99261.81
2023-07-04T09:28:55.340Z,99261.09
2023-07-04T09:31:33.015Z,99270.75
2023-07-04T09:34:04.434Z,99265.50
2023-07-04T09:36:38.346Z,99264.66
2023-07-04T09:39:05.964Z,99260.00
2023-07-04T09:41:54.895Z,99258.03
2023-07-04T09:44:31.461Z,99255.78
2023-07-04T09:47:01.036Z,99263.00
2023-07-04T09:49:30.639Z,99267.53
2023-07-04T09:52:17.431Z,99267.91
2023-07-04T09:54:45.037Z,99265.94
2023-07-04T09:57:31.345Z,99259.09
2023-07-04T10:00:17.647Z,99257.50
2023-07-04T10:02:45.007Z,99253.03
2023-07-04T10:05:27.147Z,99261.63
2023-07-04T10:08:19.973Z,99267.72
2023-07-04T10:10:54.844Z,99257.53
2023-07-04T10:13:25.230Z,99259.22
2023-07-04T10:15:52.727Z,99254.34
2023-07-04T10:18:31.901Z,99259.47
2023-07-04T10:21:00.744Z,99260.19
2023-07-04T10:23:29.717Z,99254.91
2023-07-04T10:25:59.215Z,99255.97
2023-07-04T10:28:28.695Z,99261.09
2023-07-04T10:31:16.108Z,99259.19
2023-07-04T10:33:54.012Z,99243.56
2023-07-04T10:36:30.351Z,99243.97
2023-07-04T10:39:01.263Z,99235.09
2023-07-04T10:41:48.100Z,99238.16
2023-07-04T10:44:21.858Z,99229.56
2023-07-04T10:46:54.678Z,99225.34
2023-07-04T10:49:25.159Z,99229.22
2023-07-04T10:51:57.284Z,99233.31
2023-07-04T10:54:24.024Z,99230.94
2023-07-04T10:56:56.420Z,99221.38
2023-07-04T10:59:31.214Z,99224.88
2023-07-04T11:02:25.778Z,99226.81
2023-07-04T11:05:00.554Z,99228.56
2023-07-04T11:07:28.421Z,99224.19
2023-07-04T11:09:58.592Z,99220.09
2023-07-04T11:12:29.402Z,99217.25
2023-07-04T11:15:17.398Z,99217.53
2023-07-04T11:17:45.720Z,99216.00
2023-07-04T11:20:18.381Z,99214.91
2023-07-04T11:23:02.901Z,99214.63
2023-07-04T11:25:43.246Z,99216.06
2023-07-04T11:28:23.104Z,99207.50
2023-07-04T11:30:51.483Z,99202.00
2023-07-04T11:33:41.694Z,99194.75
2023-07-04T11:36:31.640Z,99192.94
2023-07-04T11:39:00.805Z,99199.00
2023-07-04T11:41:31.797Z,99194.00
2023-07-04T11:43:59.581Z,99188.72
2023-07-04T11:46:29.424Z,99191.84
2023-07-04T11:48:58.404Z,99195.75
2023-07-04T11:51:29.688Z,99187.34
2023-07-04T11:53:59.655Z,99195.22
2023-07-04T11:56:28.059Z,99201.25
2023-07-04T11:59:12.684Z,99194.22
2023-07-04T12:01:58.411Z,99200.53
2023-07-04T12:04:45.478Z,99197.09
2023-07-04T12:07:30.404Z,99198.03
2023-07-04T12:10:20.245Z,99184.72
2023-07-04T12:12:49.415Z,99184.81
2023-07-04T12:15:26.148Z,99171.00
2023-07-04T12:17:56.012Z,99164.97
2023-07-04T12:20:22.647Z,99166.69
2023-07-04T12:22:53.329Z,99155.75
2023-07-04T12:25:25.574Z,99163.16
2023-07-04T12:27:59.615Z,99173.34
2023-07-04T12:33:07.484Z,99175.03
2023-07-04T12:35:39.675Z,99165.78
2023-07-04T12:38:08.201Z,99172.03
2023-07-04T12:40:35.347Z,99172.31
2023-07-04T12:45:34.446Z,99167.75
2023-07-04T12:50:35.924Z,99171.28
2023-07-04T12:53:03.567Z,99167.78
2023-07-04T12:55:33.594Z,99159.53
2023-07-04T12:58:01.816Z,99165.53
2023-07-04T13:01:04.151Z,99167.84
2023-07-04T13:03:31.429Z,99160.13
2023-07-04T13:05:58.489Z,99174.59
2023-07-04T13:08:28.204Z,99169.19
2023-07-04T13:10:56.905Z,99169.19
2023-07-04T13:13:39.419Z,99170.75
2023-07-04T13:16:31.600Z,99172.81
2023-07-04T13:19:19.681Z,99164.06
2023-07-04T13:21:51.429Z,99157.91
2023-07-04T13:27:12.633Z,99161.69
2023-07-04T13:34:55.762Z,99160.56
2023-07-04T13:37:24.917Z,99155.56
2023-07-04T13:39:55.361Z,99153.63
2023-07-04T13:42:22.654Z,99149.09
2023-07-04T13:47:19.226Z,99140.66
2023-07-04T13:49:45.982Z,99139.72
2023-07-04T13:52:12.720Z,99125.38
2023-07-04T13:54:39.502Z,99128.72
2023-07-04T13:57:06.494Z,99132.84
2023-07-04T13:59:33.065Z,99133.84
2023-07-04T14:06:59.401Z,99134.03
2023-07-04T14:09:26.043Z,99127.66
2023-07-04T14:11:59.420Z,99130.84
2023-07-04T14:17:32.359Z,99127.19
2023-07-04T14:22:13.614Z,99134.19
2023-07-04T14:24:40.200Z,99133.19
2023-07-04T14:27:06.776Z,99133.19
2023-07-04T14:29:33.390Z,99123.91
2023-07-04T14:31:59.989Z,99126.41
2023-07-04T14:34:28.192Z,99133.28
2023-07-04T14:36:54.823Z,99126.97
2023-07-04T14:39:21.799Z,99127.44
2023-07-04T14:42:30.020Z,99126.66
2023-07-04T14:44:35.241Z,99127.50
2023-07-04T14:47:02.089Z,99115.63
2023-07-04T14:49:28.784Z,99116.94
2023-07-04T14:51:55.312Z,99117.50
2023-07-04T14:54:22.597Z,99121.63
2023-07-04T14:56:51.422Z,99131.53
2023-07-04T14:59:18.596Z,99119.91
2023-07-04T15:01:45.169Z,99123.06
2023-07-04T15:04:11.697Z,99122.66
2023-07-04T15:06:38.234Z,99117.19
2023-07-04T15:09:06.420Z,99113.34
2023-07-04T15:11:33.395Z,99112.84
2023-07-04T15:14:00.709Z,99101.41
2023-07-04T15:16:27.471Z,99096.47
2023-07-04T15:18:54.113Z,99096.19
2023-07-04T15:21:20.666Z,99099.25
2023-07-04T15:23:47.233Z,99092.19
2023-07-04T15:26:26.009Z,99096.13
2023-07-04T15:28:54.093Z,99092.59
2023-07-04T15:31:21.041Z,99075.16
2023-07-04T15:33:49.826Z,99080.66
2023-07-04T15:36:16.581Z,99087.69
2023-07-04T15:38:43.143Z,99083.19
2023-07-04T15:41:10.946Z,99079.59
2023-07-04T15:43:39.079Z,99080.56
2023-07-04T15:46:08.469Z,99080.13
2023-07-04T15:48:36.181Z,99076.56
2023-07-04T15:51:03.583Z,99070.09
2023-07-04T15:53:30.173Z,99074.63
2023-07-04T15:56:02.116Z,99073.69
2023-07-04T15:58:29.829Z,99078.78
2023-07-04T16:00:58.223Z,99079.75
2023-07-04T16:03:26.157Z,99082.22
2023-07-04T16:05:57.766Z,99084.13
2023-07-04T16:08:26.087Z,99077.59
2023-07-04T16:10:57.646Z,99080.28
2023-07-04T16:13:24.610Z,99080.81
2023-07-04T16:15:51.551Z,99090.41
2023-07-04T16:18:18.545Z,99090.47
2023-07-04T16:20:46.015Z,99082.75
2023-07-04T16:23:12.820Z,99087.06
2023-07-04T16:25:43.301Z,99091.63
2023-07-04T16:28:10.855Z,99090.66
2023-07-04T16:30:38.075Z,99078.69
2023-07-04T16:33:04.696Z,99082.53
2023-07-04T16:35:31.312Z,99084.53
2023-07-04T16:37:57.844Z,99079.59
2023-07-04T16:40:24.494Z,99083.41
2023-07-04T16:42:52.856Z,99082.88
2023-07-04T16:45:20.206Z,99078.91
2023-07-04T16:47:46.860Z,99078.63
2023-07-04T16:50:29.823Z,99082.22
2023-07-04T16:52:58.044Z,99079.06
2023-07-04T16:55:25.400Z,99089.84
2023-07-04T16:57:52.371Z,99085.69
2023-07-04T17:00:19.344Z,99081.09
2023-07-04T17:02:46.096Z,99082.91
2023-07-04T17:05:12.843Z,99075.41
2023-07-04T17:07:39.446Z,99084.44
2023-07-04T17:10:06.784Z,99075.97
2023-07-04T17:12:33.337Z,99079.34
2023-07-04T17:14:59.955Z,99086.59
2023-07-04T17:17:26.916Z,99080.50
2023-07-04T17:19:53.910Z,99077.53
2023-07-04T17:22:20.530Z,99073.78
2023-07-04T17:24:53.477Z,99070.66
2023-07-04T17:27:25.976Z,99076.75
2023-07-04T17:29:52.541Z,99072.81
2023-07-04T17:32:19.114Z,99071.53
2023-07-04T17:34:45.692Z,99069.06
2023-07-04T17:37:12.692Z,99066.00
2023-07-04T17:39:39.522Z,99065.38
2023-07-04T17:42:06.486Z,99062.53
2023-07-04T17:44:33.697Z,99064.41
2023-07-04T17:47:00.930Z,99064.56
2023-07-04T17:49:28.708Z,99068.53
2023-07-04T17:51:56.437Z,99069.78
2023-07-04T17:54:23.025Z,99058.53
2023-07-04T17:56:50.460Z,99072.03
2023-07-04T17:59:17.031Z,99077.38
2023-07-04T18:01:44.267Z,99070.66
2023-07-04T18:04:11.482Z,99077.56
2023-07-04T18:06:40.045Z,99079.25
2023-07-04T18:09:07.580Z,99083.34
2023-07-04T18:11:34.344Z,99083.00
2023-07-04T18:14:01.014Z,99085.81
2023-07-04T18:16:28.293Z,99089.09
2023-07-04T18:18:55.013Z,99083.88
2023-07-04T18:21:23.864Z,99082.16
2023-07-04T18:23:52.742Z,99078.81
2023-07-04T18:26:21.846Z,99082.88
2023-07-04T18:28:50.475Z,99088.78
2023-07-04T18:31:19.803Z,99087.50
2023-07-04T18:33:47.396Z,99094.34
2023-07-04T18:36:22.646Z,99099.94
2023-07-04T18:38:50.074Z,99103.97
2023-07-04T18:41:20.322Z,99108.75
2023-07-04T18:43:47.069Z,99107.09
2023-07-04T18:46:23.462Z,99117.50
2023-07-04T18:48:50.342Z,99115.09
2023-07-04T18:51:22.375Z,99114.25
2023-07-04T18:53:49.812Z,99117.75
2023-07-04T18:56:16.601Z,99120.03
2023-07-04T18:58:44.679Z,99123.91
2023-07-04T19:01:15.264Z,99128.53
2023-07-04T19:03:43.680Z,99138.41
2023-07-04T19:06:15.294Z,99137.84
2023-07-04T19:08:47.257Z,99147.34
2023-07-04T19:11:19.198Z,99149.59
2023-07-04T19:14:07.485Z,99148.72
2023-07-04T19:16:39.598Z,99146.16
2023-07-04T19:19:09.322Z,99148.41
2023-07-04T19:21:37.532Z,99153.34
2023-07-04T19:24:04.993Z,99149.53
2023-07-04T19:26:31.641Z,99158.53
2023-07-04T19:28:58.484Z,99163.81
2023-07-04T19:31:25.098Z,99160.75
2023-07-04T19:33:51.802Z,99166.44
2023-07-04T19:36:18.690Z,99170.94
2023-07-04T19:38:45.266Z,99166.69
2023-07-04T19:41:11.940Z,99163.63
2023-07-04T19:43:39.012Z,99170.25
2023-07-04T19:46:07.833Z,99158.38
2023-07-04T19:48:37.362Z,99165.31
2023-07-04T19:51:08.325Z,99165.09
2023-07-04T19:53:37.173Z,99171.59
2023-07-04T19:56:12.950Z,99169.66
2023-07-04T19:58:39.955Z,99166.19
2023-07-04T20:01:12.052Z,99167.88
2023-07-04T20:03:39.600Z,99173.56
2023-07-04T20:06:08.134Z,99166.50
2023-07-04T20:08:35.416Z,99168.19
2023-07-04T20:11:03.670Z,99162.66
2023-07-04T20:13:31.709Z,99168.38
2023-07-04T20:16:01.015Z,99171.63
2023-07-04T20:18:27.705Z,99168.94
2023-07-04T20:20:58.469Z,99179.81
2023-07-04T20:23:25.881Z,99174.28
2023-07-04T20:25:54.782Z,99177.50
2023-07-04T20:28:23.611Z,99185.22
2023-07-04T20:30:56.556Z,99188.91
2023-07-04T20:33:24.917Z,99189.44
2023-07-04T20:35:51.975Z,99185.09
2023-07-04T20:38:19.551Z,99171.50
2023-07-04T20:40:47.289Z,99180.34
2023-07-04T20:43:15.235Z,99184.81
2023-07-04T20:45:42.515Z,99173.69
2023-07-04T20:48:10.686Z,99184.56
2023-07-04T20:50:38.911Z,99171.81
2023-07-04T20:53:06.060Z,99181.44
2023-07-04T20:55:39.707Z,99180.28
2023-07-04T20:58:10.256Z,99179.94
2023-07-04T21:00:38.631Z,99183.97
2023-07-04T21:03:07.340Z,99181.63
2023-07-04T21:05:34.846Z,99177.69
2023-07-04T21:08:01.747Z,99181.69
2023-07-04T21:10:28.999Z,99185.75
2023-07-04T21:12:59.448Z,99187.75
2023-07-04T21:15:28.837Z,99182.16
2023-07-04T21:17:57.714Z,99181.38
2023-07-04T21:20:25.190Z,99187.75
2023-07-04T21:22:51.947Z,99190.22
2023-07-04T21:25:18.635Z,99185.41
2023-07-04T21:27:45.230Z,99189.88
2023-07-04T21:30:12.272Z,99186.72
2023-07-04T21:32:39.037Z,99193.56
2023-07-04T21:35:06.059Z,99183.56
2023-07-04T21:37:32.599Z,99184.34
2023-07-04T21:39:59.369Z,99180.41
2023-07-04T21:42:25.946Z,99179.22
2023-07-04T21:44:54.407Z,99176.03
2023-07-04T21:47:20.980Z,99176.47
2023-07-04T21:49:49.875Z,99188.16
2023-07-04T21:52:16.725Z,99183.75
2023-07-04T21:54:45.394Z,99176.22
2023-07-04T21:57:12.557Z,99175.09
2023-07-04T21:59:39.287Z,99168.34
2023-07-04T22:02:06.499Z,99164.75
2023-07-04T22:04:33.239Z,99169.22
2023-07-04T22:06:59.870Z,99167.31
2023-07-04T22:09:27.033Z,99171.34
2023-07-04T22:11:53.674Z,99173.78
2023-07-04T22:14:35.661Z,99164.16
2023-07-04T22:17:05.221Z,99167.50
2023-07-04T22:19:32.100Z,99163.13
2023-07-04T22:21:58.915Z,99176.59
2023-07-04T22:24:27.511Z,99165.66
2023-07-04T22:26:54.374Z,99160.81
2023-07-04T22:29:21.043Z,99155.22
2023-07-04T22:31:47.676Z,99158.03
2023-07-04T22:34:14.813Z,99162.06
2023-07-04T22:36:41.965Z,99150.50
2023-07-04T22:39:09.711Z,99148.94
2023-07-04T22:41:36.889Z,99152.53
2023-07-04T22:44:03.599Z,99146.59
2023-07-04T22:46:30.823Z,99163.38
2023-07-04T22:48:58.048Z,99163.81
2023-07-04T22:51:24.823Z,99151.03
2023-07-04T22:53:52.311Z,99159.44
2023-07-04T22:56:19.488Z,99152.19
2023-07-04T22:58:46.459Z,99159.34
2023-07-04T23:01:19.458Z,99160.94
2023-07-04T23:03:48.594Z,99161.72
2023-07-04T23:06:16.720Z,99167.75
2023-07-04T23:08:44.821Z,99158.19
2023-07-04T23:11:12.102Z,99149.81
2023-07-04T23:13:39.065Z,99153.06
2023-07-04T23:16:10.319Z,99147.91
2023-07-04T23:18:38.086Z,99145.44
2023-07-04T23:21:05.341Z,99148.25
2023-07-04T23:23:32.475Z,99136.16
2023-07-04T23:25:59.919Z,99133.72
2023-07-04T23:28:26.603Z,99138.06
2023-07-04T23:30:53.226Z,99139.19
2023-07-04T23:33:19.842Z,99135.97
2023-07-04T23:35:56.477Z,99132.38
2023-07-04T23:38:23.127Z,99137.53
2023-07-04T23:40:49.757Z,99125.53
2023-07-04T23:43:16.330Z,99139.91
2023-07-04T23:45:43.701Z,99137.53
2023-07-04T23:48:10.719Z,99144.38
2023-07-04T23:50:37.416Z,99144.00
2023-07-04T23:53:04.535Z,99138.53
2023-07-04T23:55:32.145Z,99137.38
2023-07-04T23:57:58.819Z,99134.59
